Time;durP1;ratioP1;P1;durP2;ratioP2;P2;SDS_P1;SDS_P2;PMS_P1;PMS_P2;Temp;Humidity;BMP_temperature;BMP_pressure;BME280_temperature;BME280_humidity;BME280_pressure;Samples;Min_cycle;Max_cycle;Signal;HPM_P1;HPM_P2
2021/06/03 00:02:01;;;;;;;2.25;1.98;;;;;;;22.96;48.53;100030.41;1811885;77;21513;-72
2021/06/03 00:04:29;;;;;;;2.15;1.95;;;;;;;22.96;48.56;100040.70;1807546;78;21010;-72
2021/06/03 00:06:56;;;;;;;1.67;1.57;;;;;;;22.94;48.61;100033.36;1813860;78;21547;-72
2021/06/03 00:09:23;;;;;;;2.00;1.67;;;;;;;22.92;48.68;100034.67;1804535;78;21136;-71
2021/06/03 00:11:51;;;;;;;2.22;2.10;;;;;;;22.92;48.67;100041.45;1804056;78;21052;-72
2021/06/03 00:14:19;;;;;;;2.30;2.10;;;;;;;22.90;48.69;100036.80;1788479;78;21032;-74
2021/06/03 00:16:46;;;;;;;1.90;1.57;;;;;;;22.89;48.76;100042.77;1802036;78;21592;-74
2021/06/03 00:19:13;;;;;;;2.10;1.90;;;;;;;22.88;48.75;100041.10;1808454;78;21001;-73
2021/06/03 00:21:41;;;;;;;2.15;1.80;;;;;;;22.85;48.69;100038.89;1808554;78;21152;-73
2021/06/03 00:24:07;;;;;;;3.12;1.90;;;;;;;22.85;48.79;100038.89;1814701;78;21006;-75
2021/06/03 00:26:35;;;;;;;1.87;1.75;;;;;;;22.84;48.75;100037.23;1806282;78;21073;-73
2021/06/03 00:29:03;;;;;;;2.30;2.10;;;;;;;22.83;48.76;100040.18;1801808;78;20985;-73
2021/06/03 00:31:32;;;;;;;2.27;1.80;;;;;;;22.82;48.85;100037.20;1816065;78;21014;-72
2021/06/03 00:33:59;;;;;;;1.80;1.70;;;;;;;22.81;48.82;100036.35;1799664;78;21104;-73
2021/06/03 00:36:26;;;;;;;3.47;1.80;;;;;;;22.81;48.86;100037.70;1805237;78;21580;-74
2021/06/03 00:38:52;;;;;;;1.92;1.60;;;;;;;22.79;48.78;100046.61;1802361;78;21084;-72
2021/06/03 00:41:20;;;;;;;1.60;1.50;;;;;;;22.78;48.85;100039.56;1805336;77;21057;-72
2021/06/03 00:43:46;;;;;;;2.08;1.52;;;;;;;22.75;48.89;100044.94;1803025;79;21017;-71
2021/06/03 00:46:13;;;;;;;3.35;2.22;;;;;;;22.75;48.85;100040.03;1803147;79;21138;-70
2021/06/03 00:48:40;;;;;;;2.00;1.80;;;;;;;22.73;48.94;100041.63;1791041;78;21045;-72
2021/06/03 00:51:09;;;;;;;2.22;1.90;;;;;;;22.71;48.99;100037.52;1808236;78;21437;-72
2021/06/03 00:53:38;;;;;;;1.87;1.75;;;;;;;22.70;48.95;100042.66;1780090;78;21029;-73
2021/06/03 00:56:05;;;;;;;2.27;1.85;;;;;;;22.69;48.96;100039.65;1799838;78;21607;-71
2021/06/03 00:58:34;;;;;;;3.02;1.52;;;;;;;22.68;49.00;100046.14;1816642;78;21093;-70
2021/06/03 01:01:01;;;;;;;3.05;1.98;;;;;;;22.67;49.00;100049.90;1782941;78;21021;-71
2021/06/03 01:03:30;;;;;;;2.70;2.10;;;;;;;22.65;49.02;100047.97;1776727;78;21089;-71
2021/06/03 01:06:08;;;;;;;2.08;1.77;;;;;;;22.64;49.00;100049.02;1783807;78;21081;-72
2021/06/03 01:09:05;;;;;;;2.10;1.87;;;;;;;22.61;49.12;100048.97;1792281;78;21045;-72
2021/06/03 01:11:42;;;;;;;2.47;2.05;;;;;;;22.58;49.18;100046.23;1804522;78;22674;-71
2021/06/03 01:14:26;;;;;;;2.00;1.80;;;;;;;22.57;49.19;100051.88;1804556;78;21030;-72
2021/06/03 01:16:56;;;;;;;1.80;1.70;;;;;;;22.54;49.27;100049.12;1795511;78;21584;-72
2021/06/03 01:19:30;;;;;;;3.50;1.80;;;;;;;22.52;49.21;100048.55;1792799;78;21002;-72
2021/06/03 01:22:12;;;;;;;2.60;1.80;;;;;;;22.50;49.25;100053.38;1799557;78;20996;-72
2021/06/03 01:24:50;;;;;;;2.60;1.75;;;;;;;22.48;49.30;100050.05;1795567;78;21175;-71
2021/06/03 01:27:20;;;;;;;2.40;1.87;;;;;;;22.47;49.34;100052.48;1805258;78;20985;-72
2021/06/03 01:29:55;;;;;;;2.45;2.25;;;;;;;22.45;49.40;100049.20;1798820;78;21041;-71
2021/06/03 01:32:22;;;;;;;2.08;1.82;;;;;;;22.45;49.42;100052.45;1795053;78;21104;-71
2021/06/03 01:34:49;;;;;;;2.05;1.87;;;;;;;22.44;49.47;100052.14;1799284;78;21015;-72
2021/06/03 01:37:17;;;;;;;1.98;1.77;;;;;;;22.43;49.45;100049.97;1801129;78;21148;-72
2021/06/03 01:39:45;;;;;;;2.40;1.90;;;;;;;22.43;49.52;100045.91;1797039;78;21020;-71
2021/06/03 01:42:12;;;;;;;1.90;1.70;;;;;;;22.44;49.58;100049.43;1790165;78;21030;-69
2021/06/03 01:44:40;;;;;;;2.22;2.02;;;;;;;22.44;49.50;100044.83;1780087;78;21005;-72
2021/06/03 01:47:07;;;;;;;2.37;2.00;;;;;;;22.44;49.55;100042.12;1797297;78;20991;-73
2021/06/03 01:49:35;;;;;;;2.10;1.90;;;;;;;22.46;49.51;100050.02;1797496;78;22056;-73
2021/06/03 01:52:04;;;;;;;2.12;1.95;;;;;;;22.45;49.55;100048.38;1777439;79;21070;-71
2021/06/03 01:54:33;;;;;;;2.02;1.70;;;;;;;22.45;49.52;100049.20;1802753;78;21020;-73
2021/06/03 01:57:03;;;;;;;2.10;1.90;;;;;;;22.45;49.46;100060.02;1793759;78;21134;-71
2021/06/03 01:59:34;;;;;;;2.05;1.85;;;;;;;22.46;49.51;100058.13;1815488;78;21046;-74
2021/06/03 02:02:00;;;;;;;1.90;1.72;;;;;;;22.46;49.54;100056.23;1794562;78;21107;-73
2021/06/03 02:04:27;;;;;;;2.15;1.80;;;;;;;22.47;49.45;100058.44;1807004;78;20982;-75
2021/06/03 02:06:56;;;;;;;2.72;1.80;;;;;;;22.46;49.50;100049.47;1801597;78;21056;-71
2021/06/03 02:09:24;;;;;;;1.90;1.67;;;;;;;22.46;49.52;100056.23;1802171;78;21013;-71
2021/06/03 02:11:51;;;;;;;4.35;2.20;;;;;;;22.46;49.49;100061.66;1789434;78;21693;-72
2021/06/03 02:14:23;;;;;;;1.92;1.82;;;;;;;22.46;49.50;100061.66;1812282;78;20978;-70
2021/06/03 02:19:19;;;;;;;2.67;2.08;;;;;;;22.50;49.53;100057.44;1888912;75;22529;-71
2021/06/03 02:21:48;;;;;;;3.35;1.92;;;;;;;22.41;49.55;100062.08;1843094;77;21067;-70
2021/06/03 02:24:16;;;;;;;2.02;1.90;;;;;;;22.42;49.67;100063.73;1832582;77;21084;-70
2021/06/03 02:26:44;;;;;;;2.30;2.10;;;;;;;22.43;49.60;100064.86;1846647;77;21040;-72
2021/06/03 02:29:13;;;;;;;2.20;2.00;;;;;;;22.43;49.60;100059.45;1848185;77;21129;-72
2021/06/03 02:31:41;;;;;;;6.90;2.05;;;;;;;22.44;49.58;100065.67;1821008;77;20974;-73
2021/06/03 02:34:08;;;;;;;3.47;1.98;;;;;;;22.44;49.55;100071.90;1854538;77;21001;-72
2021/06/03 02:36:35;;;;;;;2.17;1.90;;;;;;;22.44;49.51;100073.80;1848440;77;21717;-72
2021/06/03 02:39:06;;;;;;;2.05;1.77;;;;;;;22.42;49.58;100074.02;1849606;77;20948;-72
2021/06/03 02:41:34;;;;;;;1.85;1.70;;;;;;;22.43;49.60;100081.64;1813043;77;22053;-73
2021/06/03 02:44:01;;;;;;;2.22;1.98;;;;;;;22.43;49.55;100080.28;1853285;77;21005;-70
2021/06/03 02:46:28;;;;;;;1.90;1.80;;;;;;;22.43;49.64;100080.28;1843302;77;21603;-71
2021/06/03 02:48:56;;;;;;;2.67;2.27;;;;;;;22.42;49.63;100079.44;1836289;77;21119;-72
2021/06/03 02:51:23;;;;;;;5.58;2.25;;;;;;;22.42;49.59;100080.80;1859104;77;20973;-71
2021/06/03 02:53:52;;;;;;;2.10;1.90;;;;;;;22.43;49.67;100080.28;1856744;77;21080;-70
2021/06/03 02:56:22;;;;;;;2.25;1.92;;;;;;;22.42;49.76;100082.14;1841713;77;21087;-71
2021/06/03 02:58:49;;;;;;;1.90;1.80;;;;;;;22.43;49.68;100080.28;1854570;77;20988;-73
2021/06/03 03:01:17;;;;;;;1.92;1.80;;;;;;;22.43;49.72;100086.52;1830692;77;21138;-74
2021/06/03 03:03:45;;;;;;;1.90;1.80;;;;;;;22.44;49.77;100081.91;1850528;77;21001;-73
2021/06/03 03:06:15;;;;;;;2.37;1.80;;;;;;;22.43;49.70;100074.33;1842996;77;21040;-71
2021/06/03 03:08:42;;;;;;;2.00;1.90;;;;;;;22.42;49.79;100076.73;1849502;77;21067;-71
2021/06/03 03:11:09;;;;;;;1.95;1.60;;;;;;;22.43;49.84;100084.34;1856913;77;21708;-74
2021/06/03 03:13:42;;;;;;;2.77;2.20;;;;;;;22.42;49.80;100077.27;1846413;77;21141;-70
2021/06/03 03:16:09;;;;;;;2.77;2.10;;;;;;;22.41;49.91;100080.52;1779756;80;21505;-70
2021/06/03 03:18:37;;;;;;;2.80;2.00;;;;;;;22.41;49.92;100081.02;1758338;79;20988;-71
2021/06/03 03:21:07;;;;;;;2.20;2.00;;;;;;;22.43;50.12;100084.34;1762090;80;21045;-73
2021/06/03 03:23:34;;;;;;;1.92;1.82;;;;;;;22.36;50.01;100075.80;1770544;79;21033;-75
2021/06/03 03:26:03;;;;;;;2.05;1.87;;;;;;;22.43;50.02;100080.28;1768938;79;21541;-75
2021/06/03 03:28:31;;;;;;;1.98;1.87;;;;;;;22.44;50.13;100081.37;1773703;80;21030;-76
2021/06/03 03:31:00;;;;;;;2.05;1.90;;;;;;;22.45;50.13;100076.27;1780967;79;21033;-75
2021/06/03 03:33:29;;;;;;;2.70;1.72;;;;;;;22.46;50.01;100078.44;1779766;79;21044;-75
2021/06/03 03:35:55;;;;;;;1.72;1.62;;;;;;;22.47;49.93;100078.74;1774628;79;21092;-74
2021/06/03 03:38:24;;;;;;;2.62;2.42;;;;;;;22.47;49.96;100078.20;1779189;80;21117;-75
2021/06/03 03:40:53;;;;;;;4.03;1.90;;;;;;;22.48;49.93;100084.44;1774108;79;21497;-75
2021/06/03 03:43:21;;;;;;;3.25;2.08;;;;;;;22.48;50.06;100082.54;1789516;79;21009;-77
2021/06/03 03:45:47;;;;;;;2.40;2.20;;;;;;;22.49;50.05;100082.84;1776492;79;21041;-72
2021/06/03 03:48:16;;;;;;;2.10;1.90;;;;;;;22.50;50.10;100083.16;1779566;80;21076;-72
2021/06/03 03:50:43;;;;;;;2.20;2.00;;;;;;;22.52;50.06;100086.95;1775911;79;21143;-73
2021/06/03 03:53:10;;;;;;;2.25;1.90;;;;;;;22.53;50.16;100083.20;1763844;79;21037;-73
2021/06/03 03:55:38;;;;;;;2.05;1.80;;;;;;;22.55;50.10;100079.72;1775764;79;21020;-72
2021/06/03 03:58:05;;;;;;;1.80;1.70;;;;;;;22.55;50.13;100081.88;1787014;79;21041;-72
2021/06/03 04:00:33;;;;;;;1.75;1.65;;;;;;;22.57;50.05;100086.53;1780334;79;21679;-73
2021/06/03 04:03:06;;;;;;;2.42;1.80;;;;;;;22.60;50.08;100091.17;1782275;79;21190;-72
2021/06/03 04:05:35;;;;;;;1.87;1.72;;;;;;;22.62;50.16;100084.98;1778751;79;21561;-72
2021/06/03 04:08:05;;;;;;;2.85;1.70;;;;;;;22.63;50.15;100082.59;1765901;79;21528;-72
2021/06/03 04:10:32;;;;;;;1.67;1.57;;;;;;;22.66;50.19;100087.53;1774330;80;21045;-72
2021/06/03 04:13:00;;;;;;;1.92;1.77;;;;;;;22.67;50.15;100084.56;1790188;79;21100;-72
2021/06/03 04:15:28;;;;;;;1.98;1.87;;;;;;;22.70;50.14;100085.45;1772526;79;21163;-72
2021/06/03 04:17:56;;;;;;;2.08;1.92;;;;;;;22.74;50.06;100087.15;1779358;79;21084;-72
2021/06/03 04:20:25;;;;;;;2.10;1.90;;;;;;;22.78;50.18;100085.61;1770360;80;21029;-72
2021/06/03 04:22:53;;;;;;;2.08;1.80;;;;;;;22.82;50.11;100080.53;1772677;80;20998;-74
2021/06/03 04:25:21;;;;;;;2.47;1.92;;;;;;;22.85;50.10;100087.65;1779558;80;21011;-74
2021/06/03 04:27:48;;;;;;;2.42;2.00;;;;;;;22.89;50.10;100090.16;1783638;80;21093;-73
2021/06/03 04:30:18;;;;;;;3.12;1.87;;;;;;;22.93;50.16;100089.16;1776996;80;21578;-74
2021/06/03 04:32:46;;;;;;;2.00;1.80;;;;;;;22.98;50.08;100098.72;1768800;80;21065;-75
2021/06/03 04:35:17;;;;;;;2.50;1.82;;;;;;;23.02;50.17;100096.34;1762938;80;21525;-75
2021/06/03 04:37:45;;;;;;;3.47;2.20;;;;;;;23.06;50.04;100106.48;1766493;80;21592;-76
2021/06/03 04:40:14;;;;;;;2.10;1.90;;;;;;;23.11;50.14;100103.06;1767785;80;21814;-76
2021/06/03 04:42:41;;;;;;;2.27;2.08;;;;;;;23.15;50.10;100106.39;1780162;80;21093;-75
2021/06/03 04:45:08;;;;;;;2.00;1.90;;;;;;;23.19;50.20;100108.09;1775514;80;21017;-74
2021/06/03 04:47:35;;;;;;;2.33;2.12;;;;;;;23.23;50.23;100106.53;1782460;79;21131;-75
2021/06/03 04:50:02;;;;;;;2.98;1.50;;;;;;;23.28;50.29;100099.86;1782577;80;21096;-75
2021/06/03 04:52:29;;;;;;;2.30;2.10;;;;;;;23.32;50.31;100103.73;1777327;80;21223;-74
2021/06/03 04:54:58;;;;;;;2.85;2.20;;;;;;;;;;1772891;80;21082;-74
2021/06/03 04:57:25;;;;;;;2.10;1.90;;;;;;;23.41;50.10;100082.99;1788528;80;21548;-71
2021/06/03 04:59:51;;;;;;;3.15;2.30;;;;;;;23.45;52.22;100085.50;1775915;79;21088;-71
2021/06/03 05:02:21;;;;;;;3.75;2.60;;;;;;;23.47;53.08;100089.63;1773982;80;21054;-71
2021/06/03 05:04:48;;;;;;;5.75;2.40;;;;;;;23.51;53.56;100085.90;1784250;80;21140;-72
2021/06/03 05:07:16;;;;;;;4.30;2.27;;;;;;;23.54;53.71;100081.33;1788474;80;20965;-71
2021/06/03 05:09:43;;;;;;;3.65;2.15;;;;;;;23.58;53.76;100083.83;1771769;79;21056;-72
2021/06/03 05:12:10;;;;;;;5.90;2.20;;;;;;;23.63;53.76;100083.11;1787798;79;21057;-72
2021/06/03 05:14:38;;;;;;;4.22;2.60;;;;;;;23.68;53.69;100077.75;1781876;79;21092;-72
2021/06/03 05:17:06;;;;;;;5.85;2.42;;;;;;;23.72;53.60;100085.16;1783167;80;21883;-72
2021/06/03 05:19:36;;;;;;;4.10;2.47;;;;;;;23.77;53.52;100078.98;1781483;80;20998;-72
2021/06/03 05:22:05;;;;;;;5.03;1.98;;;;;;;23.81;53.42;100085.59;1774200;80;21028;-69
2021/06/03 05:24:33;;;;;;;3.90;2.12;;;;;;;23.85;53.28;100088.64;1780379;80;21091;-75
2021/06/03 05:26:59;;;;;;;4.47;2.17;;;;;;;23.89;53.29;100100.63;1778390;79;21047;-75
2021/06/03 05:29:27;;;;;;;3.37;2.37;;;;;;;23.93;53.74;100105.34;1774976;79;21517;-74
2021/06/03 05:31:55;;;;;;;5.53;2.52;;;;;;;23.99;53.95;100105.39;1771705;80;21100;-75
2021/06/03 05:34:22;;;;;;;3.42;2.40;;;;;;;24.02;54.06;100097.58;1763724;79;21112;-74
2021/06/03 05:36:48;;;;;;;5.95;2.58;;;;;;;24.06;54.14;100102.80;1770292;79;21050;-72
2021/06/03 05:39:15;;;;;;;3.58;2.47;;;;;;;24.10;54.10;100103.94;1775747;79;21029;-71
2021/06/03 05:41:41;;;;;;;3.40;2.42;;;;;;;24.16;53.96;100102.13;1768207;79;21128;-71
2021/06/03 05:44:10;;;;;;;6.87;2.72;;;;;;;24.20;53.73;100107.34;1767729;79;21436;-71
2021/06/03 05:46:37;;;;;;;4.25;2.55;;;;;;;24.24;53.41;100107.66;1783028;79;21041;-73
2021/06/03 05:49:06;;;;;;;2.87;2.02;;;;;;;24.26;53.06;100115.87;1781904;79;21021;-70
2021/06/03 05:51:35;;;;;;;3.00;2.40;;;;;;;24.29;52.77;100119.96;1803076;78;21028;-68
2021/06/03 05:54:01;;;;;;;16.17;5.05;;;;;;;24.33;52.67;100118.39;1779539;79;21122;-73
2021/06/03 05:56:28;;;;;;;14.07;6.45;;;;;;;24.35;52.50;100118.95;1779470;80;21029;-72
2021/06/03 05:58:55;;;;;;;13.58;6.50;;;;;;;24.39;52.63;100126.88;1778647;80;21065;-72
2021/06/03 06:01:22;;;;;;;10.75;6.12;;;;;;;24.42;52.65;100117.44;1770080;80;21054;-72
2021/06/03 06:03:58;;;;;;;9.38;5.58;;;;;;;24.45;52.55;100119.64;1786314;80;21029;-72
2021/06/03 06:06:26;;;;;;;9.98;5.30;;;;;;;24.49;52.28;100115.34;1785228;79;21507;-73
2021/06/03 06:09:01;;;;;;;8.18;5.35;;;;;;;24.51;52.15;100116.78;1775039;79;21018;-73
2021/06/03 06:11:31;;;;;;;7.87;5.05;;;;;;;24.53;52.04;100117.36;1764879;79;21092;-74
2021/06/03 06:13:58;;;;;;;6.55;4.80;;;;;;;24.57;51.87;100122.27;1793663;79;21048;-74
2021/06/03 06:16:26;;;;;;;7.30;4.17;;;;;;;24.59;51.77;100115.53;1777025;79;21057;-74
2021/06/03 06:18:54;;;;;;;6.22;4.12;;;;;;;24.61;51.72;100112.02;1778469;79;21026;-73
2021/06/03 06:21:21;;;;;;;6.90;3.87;;;;;;;24.64;51.52;100110.69;1801966;79;21040;-74
2021/06/03 06:23:49;;;;;;;5.22;3.87;;;;;;;24.67;51.30;100110.20;1790190;79;21500;-73
2021/06/03 06:26:15;;;;;;;6.37;3.42;;;;;;;24.68;51.26;100115.35;1784840;79;21032;-69
2021/06/03 06:28:49;;;;;;;4.17;3.17;;;;;;;24.71;50.01;100116.22;1782323;79;21029;-69
2021/06/03 06:31:15;;;;;;;5.70;3.45;;;;;;;24.71;49.05;100124.91;1799841;79;21127;-69
2021/06/03 06:33:42;;;;;;;4.95;4.15;;;;;;;24.68;48.39;100120.78;1792221;79;21017;-69
2021/06/03 06:36:09;;;;;;;8.70;4.08;;;;;;;24.66;48.02;100119.41;1799216;79;21244;-70
2021/06/03 06:38:37;;;;;;;6.05;4.72;;;;;;;24.65;47.85;100118.59;1796376;79;21103;-70
2021/06/03 06:41:03;;;;;;;5.50;4.37;;;;;;;24.64;47.63;100121.55;1783750;79;21563;-70
2021/06/03 06:43:30;;;;;;;5.22;3.90;;;;;;;24.63;47.11;100113.13;1794433;79;21085;-69
2021/06/03 06:45:57;;;;;;;4.62;3.92;;;;;;;24.63;46.55;100122.64;1792945;79;21017;-73
2021/06/03 06:48:23;;;;;;;4.90;3.60;;;;;;;24.60;46.13;100124.48;1791739;79;21088;-73
2021/06/03 06:50:51;;;;;;;4.33;3.10;;;;;;;24.59;46.05;100126.91;1793969;79;21126;-75
2021/06/03 06:53:18;;;;;;;5.83;3.15;;;;;;;24.59;46.26;100122.83;1802506;79;21036;-71
2021/06/03 06:55:45;;;;;;;5.62;3.20;;;;;;;24.58;45.75;100123.38;1791248;80;21136;-74
2021/06/03 06:58:12;;;;;;;6.55;2.77;;;;;;;24.59;45.56;100124.19;1817597;78;21041;-74
2021/06/03 07:00:40;;;;;;;5.78;3.35;;;;;;;24.59;44.83;100120.11;1807293;78;21015;-72
2021/06/03 07:03:08;;;;;;;8.15;4.08;;;;;;;24.59;43.84;100118.76;1813438;77;22182;-71
2021/06/03 07:05:39;;;;;;;4.15;2.72;;;;;;;24.57;42.98;100118.19;1805515;78;21044;-70
2021/06/03 07:08:06;;;;;;;7.87;3.22;;;;;;;24.56;42.38;100108.41;1807318;78;21110;-69
2021/06/03 07:10:34;;;;;;;4.42;2.42;;;;;;;24.52;41.06;100106.73;1810732;78;21048;-68
2021/06/03 07:13:00;;;;;;;3.72;2.70;;;;;;;24.48;39.88;100110.45;1815797;78;20993;-72
2021/06/03 07:15:26;;;;;;;5.08;2.50;;;;;;;24.41;39.25;100104.92;1813524;78;21106;-72
2021/06/03 07:17:55;;;;;;;3.12;2.40;;;;;;;24.32;38.55;100108.08;1790202;78;21044;-71
2021/06/03 07:20:24;;;;;;;6.87;2.62;;;;;;;24.23;38.24;100110.92;1784677;79;21159;-76
2021/06/03 07:22:56;;;;;;;4.58;2.52;;;;;;;24.14;38.23;100113.25;1781451;79;21195;-66
2021/06/03 07:25:24;;;;;;;3.37;2.80;;;;;;;24.10;37.92;100105.30;1789648;79;21022;-69
2021/06/03 07:27:50;;;;;;;4.37;2.50;;;;;;;24.04;37.81;100104.13;1786981;79;21103;-66
2021/06/03 07:30:19;;;;;;;4.65;3.12;;;;;;;24.01;38.36;100106.81;1777938;79;21049;-70
2021/06/03 07:32:46;;;;;;;5.35;2.05;;;;;;;23.99;38.09;100110.31;1775777;79;21194;-66
2021/06/03 07:35:14;;;;;;;4.60;2.65;;;;;;;23.99;36.94;100095.90;1784017;79;21547;-69
2021/06/03 07:37:42;;;;;;;3.42;2.62;;;;;;;23.93;37.57;100085.50;1780674;78;21496;-68
2021/06/03 07:40:14;;;;;;;7.53;2.52;;;;;;;23.90;37.01;100102.30;1775362;79;21568;-70
2021/06/03 07:42:40;;;;;;;3.58;2.20;;;;;;;23.86;36.97;100099.79;1776222;79;21021;-68
2021/06/03 07:45:09;;;;;;;4.47;2.08;;;;;;;23.84;36.50;100116.84;1765938;79;21824;-68
2021/06/03 07:47:36;;;;;;;4.95;2.12;;;;;;;23.80;36.74;100099.39;1777098;79;21147;-72
2021/06/03 07:50:04;;;;;;;4.80;2.62;;;;;;;23.77;36.46;100088.48;1776670;79;21088;-69
2021/06/03 07:52:32;;;;;;;3.08;2.15;;;;;;;23.75;36.31;100105.55;1796140;79;21595;-71
2021/06/03 07:54:58;;;;;;;3.20;2.10;;;;;;;23.73;35.93;100100.36;1792749;79;21024;-68
2021/06/03 07:57:26;;;;;;;3.87;2.45;;;;;;;23.68;36.07;100098.94;1791838;79;21837;-65
2021/06/03 07:59:52;;;;;;;5.45;2.12;;;;;;;23.66;36.60;100097.52;1794356;79;21075;-69
2021/06/03 08:02:19;;;;;;;5.80;2.62;;;;;;;23.65;35.89;100108.09;1779369;79;22046;-67
2021/06/03 08:04:45;;;;;;;4.47;2.30;;;;;;;23.64;36.44;100107.28;1794352;79;21072;-69
2021/06/03 08:07:12;;;;;;;3.37;2.10;;;;;;;23.65;36.17;100095.89;1795493;79;21084;-69
2021/06/03 08:09:38;;;;;;;2.77;2.12;;;;;;;23.68;37.20;100099.45;1780546;79;21138;-70
2021/06/03 08:12:07;;;;;;;6.62;2.02;;;;;;;23.73;37.09;100107.14;1787145;79;21092;-67
2021/06/03 08:14:34;;;;;;;3.50;2.47;;;;;;;23.79;37.20;100106.72;1778172;79;21143;-68
2021/06/03 08:17:02;;;;;;;3.25;2.30;;;;;;;23.84;37.01;100091.89;1778383;79;21085;-67
2021/06/03 08:19:30;;;;;;;3.58;2.33;;;;;;;23.90;36.74;100100.94;1794337;79;21053;-71
2021/06/03 08:21:56;;;;;;;6.22;2.33;;;;;;;23.95;36.77;100106.42;1795487;79;21151;-68
2021/06/03 08:24:24;;;;;;;5.03;2.20;;;;;;;24.01;36.63;100110.88;1782595;79;21510;-69
2021/06/03 08:26:52;;;;;;;4.83;2.27;;;;;;;24.07;36.48;100101.73;1795000;79;22078;-69
2021/06/03 08:29:20;;;;;;;2.65;2.25;;;;;;;24.12;36.38;100097.72;1795481;79;21065;-70
2021/06/03 08:31:48;;;;;;;2.45;2.22;;;;;;;24.18;36.22;100106.77;1793754;79;21631;-70
2021/06/03 08:34:17;;;;;;;3.50;2.22;;;;;;;24.23;36.02;100101.97;1793101;79;21112;-69
2021/06/03 08:36:44;;;;;;;2.22;2.02;;;;;;;24.27;35.76;100098.48;1776232;79;21096;-69
2021/06/03 08:39:10;;;;;;;3.08;2.12;;;;;;;24.30;35.49;100102.08;1789809;79;21001;-72
2021/06/03 08:41:39;;;;;;;3.12;2.27;;;;;;;24.37;35.37;100112.74;1789093;79;21543;-68
2021/06/03 08:44:08;;;;;;;4.45;2.10;;;;;;;24.38;34.53;100102.18;1782387;79;21563;-73
2021/06/03 08:46:35;;;;;;;2.90;2.22;;;;;;;24.40;34.39;100108.72;1765953;79;21104;-71
2021/06/03 08:49:04;;;;;;;3.10;2.08;;;;;;;24.40;34.68;100114.97;1782151;79;21116;-71
2021/06/03 08:51:31;;;;;;;3.00;2.40;;;;;;;24.42;34.50;100109.30;1780146;79;21029;-70
2021/06/03 08:53:59;;;;;;;2.40;2.15;;;;;;;24.44;33.42;100099.00;1771389;79;21053;-70
2021/06/03 08:56:26;;;;;;;7.97;2.15;;;;;;;24.39;33.33;100122.81;1744666;79;21008;-72
2021/06/03 08:59:01;;;;;;;2.60;2.10;;;;;;;24.35;33.08;100123.03;1737509;79;21206;-70
2021/06/03 09:01:29;;;;;;;4.30;2.80;;;;;;;24.31;33.10;100119.17;1771858;79;21072;-71
2021/06/03 09:03:57;;;;;;;3.65;1.98;;;;;;;24.27;33.37;100124.28;1774153;79;21551;-71
2021/06/03 09:06:24;;;;;;;4.08;2.30;;;;;;;24.25;32.93;100129.14;1781661;79;20994;-72
2021/06/03 09:09:01;;;;;;;4.03;2.27;;;;;;;24.22;33.54;100124.73;1775617;79;21089;-73
2021/06/03 09:11:30;;;;;;;4.53;2.15;;;;;;;24.23;33.54;100110.11;1783102;79;21159;-71
2021/06/03 09:14:04;;;;;;;4.17;1.72;;;;;;;24.24;33.79;100121.23;1767349;79;21069;-70
2021/06/03 09:16:33;;;;;;;2.92;2.20;;;;;;;24.28;34.28;100127.81;1772851;80;21100;-70
2021/06/03 09:19:10;;;;;;;2.15;1.95;;;;;;;24.33;34.75;100115.13;1761803;78;21002;-71
2021/06/03 09:21:47;;;;;;;3.87;2.30;;;;;;;24.41;34.94;100120.67;1787945;79;21078;-69
2021/06/03 09:24:17;;;;;;;4.78;2.27;;;;;;;24.47;35.12;100110.19;1784551;79;21142;-72
2021/06/03 09:26:51;;;;;;;2.55;1.92;;;;;;;24.54;35.21;100104.59;1780673;79;21551;-70
2021/06/03 09:29:30;;;;;;;4.60;2.20;;;;;;;24.60;34.93;100115.80;1798968;79;21055;-68
2021/06/03 09:32:14;;;;;;;2.98;2.22;;;;;;;24.67;34.89;100126.49;1796133;79;21118;-68
2021/06/03 09:34:41;;;;;;;5.65;2.30;;;;;;;24.74;34.75;100110.80;1759163;79;21100;-67
2021/06/03 09:37:09;;;;;;;2.70;1.98;;;;;;;24.80;34.66;100115.77;1754557;79;21161;-68
2021/06/03 09:39:41;;;;;;;4.92;2.40;;;;;;;24.86;34.63;100112.03;1795445;79;21088;-70
2021/06/03 09:42:19;;;;;;;6.28;2.45;;;;;;;24.92;34.10;100105.61;1801051;79;21021;-69
2021/06/03 09:44:55;;;;;;;4.22;2.58;;;;;;;24.97;33.76;100110.27;1796938;79;21064;-68
2021/06/03 09:47:25;;;;;;;4.47;2.05;;;;;;;25.01;33.71;100105.41;1798106;79;21449;-72
2021/06/03 09:49:58;;;;;;;3.70;2.12;;;;;;;25.05;33.74;100105.22;1798730;79;21012;-73
2021/06/03 09:52:32;;;;;;;6.92;2.92;;;;;;;25.10;34.02;100107.16;1790905;79;21004;-72
2021/06/03 09:55:01;;;;;;;3.98;2.02;;;;;;;25.16;33.71;100102.59;1790963;79;21065;-74
2021/06/03 09:57:30;;;;;;;3.35;2.40;;;;;;;25.21;33.83;100101.30;1788600;79;21537;-75
2021/06/03 10:00:01;;;;;;;6.55;2.27;;;;;;;25.26;33.93;100101.36;1794661;79;21052;-70
2021/06/03 10:02:32;;;;;;;3.08;1.90;;;;;;;25.29;33.54;100111.19;1781174;79;21118;-67
2021/06/03 10:04:59;;;;;;;2.92;2.25;;;;;;;25.36;33.05;100112.88;1753775;78;21064;-69
2021/06/03 10:07:29;;;;;;;3.50;2.15;;;;;;;25.41;33.14;100112.94;1754329;81;21036;-66
2021/06/03 10:10:09;;;;;;;5.67;2.17;;;;;;;25.46;33.33;100121.16;1784281;78;21481;-66
2021/06/03 10:12:49;;;;;;;3.35;2.30;;;;;;;25.50;33.56;100123.63;1794494;79;21087;-66
2021/06/03 10:15:26;;;;;;;3.25;1.95;;;;;;;25.53;33.44;100128.55;1778487;79;22061;-66
2021/06/03 10:18:00;;;;;;;5.83;2.05;;;;;;;25.54;33.32;100115.23;1742843;79;21119;-64
2021/06/03 10:20:49;;;;;;;2.62;1.90;;;;;;;25.55;33.11;100122.30;1794980;79;21061;-67
2021/06/03 10:23:28;;;;;;;6.67;2.52;;;;;;;25.58;32.96;100133.23;1787248;79;21058;-67
2021/06/03 10:26:01;;;;;;;3.98;1.90;;;;;;;25.59;32.99;100126.14;1785411;79;21045;-66
2021/06/03 10:28:28;;;;;;;5.78;2.20;;;;;;;25.60;32.75;100125.63;1795903;79;21009;-66
2021/06/03 10:30:58;;;;;;;2.52;2.15;;;;;;;25.62;33.09;100116.66;1794518;79;21037;-68
2021/06/03 10:33:27;;;;;;;3.22;2.12;;;;;;;25.64;32.94;100115.31;1795948;79;21013;-67
2021/06/03 10:36:00;;;;;;;2.75;1.82;;;;;;;25.70;32.82;100119.72;1794095;79;21496;-67
2021/06/03 10:38:27;;;;;;;2.25;2.00;;;;;;;25.76;32.52;100121.94;1795072;79;26693;-68
2021/06/03 10:41:00;;;;;;;4.45;2.47;;;;;;;25.82;32.81;100117.37;1741220;81;21151;-71
2021/06/03 10:43:29;;;;;;;2.87;2.10;;;;;;;25.86;32.95;100113.88;1801338;78;21063;-69
2021/06/03 10:45:55;;;;;;;2.87;1.87;;;;;;;25.92;32.23;100113.38;1766328;80;21077;-68
2021/06/03 10:48:23;;;;;;;2.70;2.27;;;;;;;25.96;32.54;100117.25;1796349;79;21014;-66
2021/06/03 10:50:52;;;;;;;4.30;2.00;;;;;;;26.02;32.19;100108.03;1794829;79;21556;-70
2021/06/03 10:53:25;;;;;;;6.12;2.25;;;;;;;26.07;32.01;100105.33;1791817;79;21127;-69
2021/06/03 10:55:56;;;;;;;2.77;2.22;;;;;;;26.14;32.33;100109.75;1793655;79;21499;-70
2021/06/03 10:58:33;;;;;;;3.15;2.10;;;;;;;26.19;33.12;100104.31;1792248;79;21006;-70
2021/06/03 11:01:04;;;;;;;5.15;2.10;;;;;;;26.24;33.28;100104.36;1786802;79;21528;-71
2021/06/03 11:03:42;;;;;;;5.28;2.10;;;;;;;26.27;32.75;100100.57;1793004;79;21556;-70
2021/06/03 11:06:14;;;;;;;3.58;1.85;;;;;;;26.31;32.34;100109.55;1788367;79;21041;-71
2021/06/03 11:08:51;;;;;;;4.55;2.20;;;;;;;26.34;32.42;100120.74;1779373;79;20998;-70
2021/06/03 11:11:24;;;;;;;4.62;2.20;;;;;;;26.36;32.31;100119.94;1787703;79;21083;-69
2021/06/03 11:13:57;;;;;;;2.30;2.10;;;;;;;26.36;32.20;100119.94;1790605;78;21064;-71
2021/06/03 11:16:36;;;;;;;4.72;2.15;;;;;;;26.38;32.36;100113.69;1791127;79;21089;-71
2021/06/03 11:19:07;;;;;;;3.55;2.20;;;;;;;26.40;32.59;100121.05;1771211;78;21158;-72
2021/06/03 11:21:47;;;;;;;5.03;2.30;;;;;;;26.44;33.03;100126.80;1780496;79;21045;-70
2021/06/03 11:24:23;;;;;;;6.35;2.20;;;;;;;26.48;32.37;100126.02;1776872;78;21088;-72
2021/06/03 11:26:55;;;;;;;3.58;2.55;;;;;;;26.52;32.37;100128.20;1774932;79;21033;-72
2021/06/03 11:29:35;;;;;;;4.47;2.65;;;;;;;26.56;33.00;100127.94;1770292;79;26625;-71
2021/06/03 11:32:11;;;;;;;3.35;2.15;;;;;;;26.60;32.74;100123.66;1770920;79;21032;-73
2021/06/03 11:34:44;;;;;;;4.62;2.60;;;;;;;26.64;32.87;100124.77;1802541;79;21057;-69
2021/06/03 11:37:20;;;;;;;5.65;2.20;;;;;;;26.66;33.11;100123.95;1813551;78;21088;-67
2021/06/03 11:39:59;;;;;;;5.55;2.35;;;;;;;26.69;33.15;100128.85;1811403;77;21586;-70